sensor_id;sensor_type;location;lat;lon;timestamp;temperature;humidity
28837;DHT22;50669;50.982;11.022;2022-08-03T00:00:55;20.40;75.30
28837;DHT22;50669;50.982;11.022;2022-08-03T00:03:21;20.40;75.40
28837;DHT22;50669;50.982;11.022;2022-08-03T00:05:49;20.30;75.40
28837;DHT22;50669;50.982;11.022;2022-08-03T00:08:19;20.30;75.60
28837;DHT22;50669;50.982;11.022;2022-08-03T00:10:47;20.30;76.00
28837;DHT22;50669;50.982;11.022;2022-08-03T00:13:13;20.30;76.10
28837;DHT22;50669;50.982;11.022;2022-08-03T00:15:42;20.20;76.40
28837;DHT22;50669;50.982;11.022;2022-08-03T00:18:07;20.20;76.70
28837;DHT22;50669;50.982;11.022;2022-08-03T00:20:36;20.20;76.90
28837;DHT22;50669;50.982;11.022;2022-08-03T00:23:02;20.10;77.20
28837;DHT22;50669;50.982;11.022;2022-08-03T00:25:28;20.10;77.40
28837;DHT22;50669;50.982;11.022;2022-08-03T00:27:54;20.00;77.20
28837;DHT22;50669;50.982;11.022;2022-08-03T00:30:19;20.00;77.40
28837;DHT22;50669;50.982;11.022;2022-08-03T00:32:45;19.90;77.30
28837;DHT22;50669;50.982;11.022;2022-08-03T00:35:13;19.90;77.30
28837;DHT22;50669;50.982;11.022;2022-08-03T00:37:39;19.90;77.20
28837;DHT22;50669;50.982;11.022;2022-08-03T00:40:05;19.80;77.20
28837;DHT22;50669;50.982;11.022;2022-08-03T00:42:31;19.80;77.10
28837;DHT22;50669;50.982;11.022;2022-08-03T00:44:56;19.80;77.10
28837;DHT22;50669;50.982;11.022;2022-08-03T00:47:22;19.80;77.30
28837;DHT22;50669;50.982;11.022;2022-08-03T00:49:52;19.80;77.40
28837;DHT22;50669;50.982;11.022;2022-08-03T00:52:18;19.70;77.20
28837;DHT22;50669;50.982;11.022;2022-08-03T00:54:43;19.70;77.60
28837;DHT22;50669;50.982;11.022;2022-08-03T00:57:11;19.70;77.70
28837;DHT22;50669;50.982;11.022;2022-08-03T00:59:39;19.70;77.70
28837;DHT22;50669;50.982;11.022;2022-08-03T01:02:05;19.60;77.80
28837;DHT22;50669;50.982;11.022;2022-08-03T01:04:33;19.60;77.70
28837;DHT22;50669;50.982;11.022;2022-08-03T01:07:20;19.70;77.90
28837;DHT22;50669;50.982;11.022;2022-08-03T01:15:49;19.60;77.90
28837;DHT22;50669;50.982;11.022;2022-08-03T01:18:24;19.70;77.80
28837;DHT22;50669;50.982;11.022;2022-08-03T01:20:57;19.70;77.50
28837;DHT22;50669;50.982;11.022;2022-08-03T01:26:40;19.70;77.70
28837;DHT22;50669;50.982;11.022;2022-08-03T01:32:07;19.60;78.10
28837;DHT22;50669;50.982;11.022;2022-08-03T01:34:42;19.60;77.90
28837;DHT22;50669;50.982;11.022;2022-08-03T01:37:10;19.60;78.20
28837;DHT22;50669;50.982;11.022;2022-08-03T01:39:38;19.60;78.90
28837;DHT22;50669;50.982;11.022;2022-08-03T01:42:07;19.50;79.50
28837;DHT22;50669;50.982;11.022;2022-08-03T01:44:39;19.40;79.30
28837;DHT22;50669;50.982;11.022;2022-08-03T01:47:06;19.40;79.10
28837;DHT22;50669;50.982;11.022;2022-08-03T01:49:37;19.40;79.50
28837;DHT22;50669;50.982;11.022;2022-08-03T01:52:04;19.40;79.60
28837;DHT22;50669;50.982;11.022;2022-08-03T01:54:35;19.40;79.60
28837;DHT22;50669;50.982;11.022;2022-08-03T01:57:05;19.30;79.40
28837;DHT22;50669;50.982;11.022;2022-08-03T01:59:34;19.30;79.80
28837;DHT22;50669;50.982;11.022;2022-08-03T02:02:02;19.30;79.40
28837;DHT22;50669;50.982;11.022;2022-08-03T02:04:28;19.30;79.50
28837;DHT22;50669;50.982;11.022;2022-08-03T02:06:57;19.20;79.90
28837;DHT22;50669;50.982;11.022;2022-08-03T02:09:24;19.20;79.90
28837;DHT22;50669;50.982;11.022;2022-08-03T02:11:51;19.20;80.10
28837;DHT22;50669;50.982;11.022;2022-08-03T02:14:19;19.10;80.30
28837;DHT22;50669;50.982;11.022;2022-08-03T02:16:46;19.00;80.20
28837;DHT22;50669;50.982;11.022;2022-08-03T02:19:13;19.00;80.40
28837;DHT22;50669;50.982;11.022;2022-08-03T02:21:42;19.00;80.70
28837;DHT22;50669;50.982;11.022;2022-08-03T02:24:10;19.00;80.70
28837;DHT22;50669;50.982;11.022;2022-08-03T02:26:42;18.90;81.60
28837;DHT22;50669;50.982;11.022;2022-08-03T02:29:17;18.90;81.20
28837;DHT22;50669;50.982;11.022;2022-08-03T02:31:48;18.90;81.20
28837;DHT22;50669;50.982;11.022;2022-08-03T02:34:15;18.80;81.50
28837;DHT22;50669;50.982;11.022;2022-08-03T02:36:43;18.80;81.70
28837;DHT22;50669;50.982;11.022;2022-08-03T02:39:12;18.80;81.70
28837;DHT22;50669;50.982;11.022;2022-08-03T02:41:47;18.70;81.70
28837;DHT22;50669;50.982;11.022;2022-08-03T02:44:13;18.70;81.90
28837;DHT22;50669;50.982;11.022;2022-08-03T02:46:44;18.70;82.10
28837;DHT22;50669;50.982;11.022;2022-08-03T02:49:12;18.70;82.40
28837;DHT22;50669;50.982;11.022;2022-08-03T02:51:39;18.60;82.10
28837;DHT22;50669;50.982;11.022;2022-08-03T02:54:06;18.60;82.30
28837;DHT22;50669;50.982;11.022;2022-08-03T02:56:39;18.60;82.30
28837;DHT22;50669;50.982;11.022;2022-08-03T02:59:05;18.60;82.40
28837;DHT22;50669;50.982;11.022;2022-08-03T03:01:32;18.60;82.50
28837;DHT22;50669;50.982;11.022;2022-08-03T03:03:59;18.50;83.00
28837;DHT22;50669;50.982;11.022;2022-08-03T03:06:25;18.50;82.70
28837;DHT22;50669;50.982;11.022;2022-08-03T03:08:55;18.50;83.00
28837;DHT22;50669;50.982;11.022;2022-08-03T03:11:22;18.50;83.30
28837;DHT22;50669;50.982;11.022;2022-08-03T03:13:52;18.50;83.30
28837;DHT22;50669;50.982;11.022;2022-08-03T03:16:19;18.50;83.30
28837;DHT22;50669;50.982;11.022;2022-08-03T03:18:46;18.50;83.30
28837;DHT22;50669;50.982;11.022;2022-08-03T03:21:17;18.50;83.30
28837;DHT22;50669;50.982;11.022;2022-08-03T03:23:46;18.60;83.40
28837;DHT22;50669;50.982;11.022;2022-08-03T03:26:14;18.60;83.50
28837;DHT22;50669;50.982;11.022;2022-08-03T03:28:45;18.60;83.40
28837;DHT22;50669;50.982;11.022;2022-08-03T03:31:11;18.50;83.60
28837;DHT22;50669;50.982;11.022;2022-08-03T03:33:37;18.50;83.70
28837;DHT22;50669;50.982;11.022;2022-08-03T03:36:04;18.50;84.50
28837;DHT22;50669;50.982;11.022;2022-08-03T03:38:31;18.50;84.20
28837;DHT22;50669;50.982;11.022;2022-08-03T03:40:57;18.50;84.30
28837;DHT22;50669;50.982;11.022;2022-08-03T03:43:23;18.50;84.50
28837;DHT22;50669;50.982;11.022;2022-08-03T03:45:49;18.50;84.50
28837;DHT22;50669;50.982;11.022;2022-08-03T03:48:18;18.50;84.60
28837;DHT22;50669;50.982;11.022;2022-08-03T03:50:44;18.40;84.30
28837;DHT22;50669;50.982;11.022;2022-08-03T03:53:12;18.40;84.10
28837;DHT22;50669;50.982;11.022;2022-08-03T03:55:41;18.40;84.10
28837;DHT22;50669;50.982;11.022;2022-08-03T03:58:08;18.50;84.10
28837;DHT22;50669;50.982;11.022;2022-08-03T04:00:34;18.40;84.00
28837;DHT22;50669;50.982;11.022;2022-08-03T04:03:02;18.40;83.60
28837;DHT22;50669;50.982;11.022;2022-08-03T04:05:28;18.50;83.80
28837;DHT22;50669;50.982;11.022;2022-08-03T04:08:17;18.50;84.00
28837;DHT22;50669;50.982;11.022;2022-08-03T04:16:20;18.50;84.10
28837;DHT22;50669;50.982;11.022;2022-08-03T04:18:51;18.60;84.10
28837;DHT22;50669;50.982;11.022;2022-08-03T04:21:19;18.70;84.20
28837;DHT22;50669;50.982;11.022;2022-08-03T04:23:50;18.70;84.00
28837;DHT22;50669;50.982;11.022;2022-08-03T04:26:19;18.70;83.70
28837;DHT22;50669;50.982;11.022;2022-08-03T04:28:46;18.70;84.00
28837;DHT22;50669;50.982;11.022;2022-08-03T04:31:14;18.70;84.20
28837;DHT22;50669;50.982;11.022;2022-08-03T04:33:43;18.60;84.30
28837;DHT22;50669;50.982;11.022;2022-08-03T04:36:13;18.70;84.30
28837;DHT22;50669;50.982;11.022;2022-08-03T04:41:27;18.80;83.90
28837;DHT22;50669;50.982;11.022;2022-08-03T04:43:57;18.80;83.90
28837;DHT22;50669;50.982;11.022;2022-08-03T04:46:34;18.80;84.50
28837;DHT22;50669;50.982;11.022;2022-08-03T04:49:00;18.90;84.30
28837;DHT22;50669;50.982;11.022;2022-08-03T04:51:27;18.90;84.60
28837;DHT22;50669;50.982;11.022;2022-08-03T04:53:54;18.80;84.80
28837;DHT22;50669;50.982;11.022;2022-08-03T04:56:20;18.90;84.90
28837;DHT22;50669;50.982;11.022;2022-08-03T04:58:48;18.90;84.80
28837;DHT22;50669;50.982;11.022;2022-08-03T05:01:15;18.90;84.90
28837;DHT22;50669;50.982;11.022;2022-08-03T05:03:45;19.00;84.90
28837;DHT22;50669;50.982;11.022;2022-08-03T05:06:11;19.00;85.10
28837;DHT22;50669;50.982;11.022;2022-08-03T05:08:38;19.00;85.20
28837;DHT22;50669;50.982;11.022;2022-08-03T05:11:03;19.00;85.10
28837;DHT22;50669;50.982;11.022;2022-08-03T05:13:29;19.10;84.70
28837;DHT22;50669;50.982;11.022;2022-08-03T05:15:57;19.10;84.90
28837;DHT22;50669;50.982;11.022;2022-08-03T05:18:26;19.20;85.00
28837;DHT22;50669;50.982;11.022;2022-08-03T05:20:56;19.20;84.70
28837;DHT22;50669;50.982;11.022;2022-08-03T05:23:24;19.40;84.20
28837;DHT22;50669;50.982;11.022;2022-08-03T05:25:49;19.60;84.00
28837;DHT22;50669;50.982;11.022;2022-08-03T05:28:18;19.70;83.80
28837;DHT22;50669;50.982;11.022;2022-08-03T05:30:44;19.80;83.90
28837;DHT22;50669;50.982;11.022;2022-08-03T05:33:12;19.80;83.50
28837;DHT22;50669;50.982;11.022;2022-08-03T05:35:38;19.80;83.70
28837;DHT22;50669;50.982;11.022;2022-08-03T05:38:06;19.80;83.80
28837;DHT22;50669;50.982;11.022;2022-08-03T05:40:32;19.80;83.90
28837;DHT22;50669;50.982;11.022;2022-08-03T05:42:58;19.90;83.90
28837;DHT22;50669;50.982;11.022;2022-08-03T05:45:24;20.00;83.90
28837;DHT22;50669;50.982;11.022;2022-08-03T05:47:50;20.00;83.70
28837;DHT22;50669;50.982;11.022;2022-08-03T05:50:16;20.20;83.60
28837;DHT22;50669;50.982;11.022;2022-08-03T05:52:45;20.30;83.20
28837;DHT22;50669;50.982;11.022;2022-08-03T05:55:11;20.50;82.90
28837;DHT22;50669;50.982;11.022;2022-08-03T05:57:38;20.70;82.30
28837;DHT22;50669;50.982;11.022;2022-08-03T06:00:09;20.90;81.70
28837;DHT22;50669;50.982;11.022;2022-08-03T06:02:35;21.00;81.30
28837;DHT22;50669;50.982;11.022;2022-08-03T06:05:06;21.00;81.10
28837;DHT22;50669;50.982;11.022;2022-08-03T06:07:32;21.20;80.80
28837;DHT22;50669;50.982;11.022;2022-08-03T06:09:58;21.30;80.30
28837;DHT22;50669;50.982;11.022;2022-08-03T06:12:26;21.50;80.00
28837;DHT22;50669;50.982;11.022;2022-08-03T06:14:51;21.50;79.60
28837;DHT22;50669;50.982;11.022;2022-08-03T06:17:20;21.70;79.40
28837;DHT22;50669;50.982;11.022;2022-08-03T06:19:46;21.80;79.40
28837;DHT22;50669;50.982;11.022;2022-08-03T06:22:13;21.90;79.10
28837;DHT22;50669;50.982;11.022;2022-08-03T06:24:39;22.10;78.90
28837;DHT22;50669;50.982;11.022;2022-08-03T06:27:05;22.30;78.40
28837;DHT22;50669;50.982;11.022;2022-08-03T06:29:30;22.30;78.00
28837;DHT22;50669;50.982;11.022;2022-08-03T06:31:56;22.20;78.00
28837;DHT22;50669;50.982;11.022;2022-08-03T06:34:21;22.30;78.00
28837;DHT22;50669;50.982;11.022;2022-08-03T06:36:47;22.40;78.10
28837;DHT22;50669;50.982;11.022;2022-08-03T06:39:17;22.40;77.90
28837;DHT22;50669;50.982;11.022;2022-08-03T06:41:43;22.60;78.00
28837;DHT22;50669;50.982;11.022;2022-08-03T06:44:09;22.70;77.30
28837;DHT22;50669;50.982;11.022;2022-08-03T06:46:35;22.90;77.20
28837;DHT22;50669;50.982;11.022;2022-08-03T06:49:03;23.10;77.00
28837;DHT22;50669;50.982;11.022;2022-08-03T06:51:28;23.20;76.50
28837;DHT22;50669;50.982;11.022;2022-08-03T06:53:54;23.30;76.40
28837;DHT22;50669;50.982;11.022;2022-08-03T06:56:23;23.40;76.30
28837;DHT22;50669;50.982;11.022;2022-08-03T06:58:49;23.50;75.90
28837;DHT22;50669;50.982;11.022;2022-08-03T07:01:14;23.70;75.80
28837;DHT22;50669;50.982;11.022;2022-08-03T07:03:42;23.80;75.20
28837;DHT22;50669;50.982;11.022;2022-08-03T07:06:08;23.90;75.20
28837;DHT22;50669;50.982;11.022;2022-08-03T07:08:39;24.00;75.20
28837;DHT22;50669;50.982;11.022;2022-08-03T07:11:04;24.20;74.70
28837;DHT22;50669;50.982;11.022;2022-08-03T07:13:30;24.20;74.20
28837;DHT22;50669;50.982;11.022;2022-08-03T07:15:58;24.40;74.10
28837;DHT22;50669;50.982;11.022;2022-08-03T07:18:26;24.50;73.80
28837;DHT22;50669;50.982;11.022;2022-08-03T07:20:51;24.60;73.80
28837;DHT22;50669;50.982;11.022;2022-08-03T07:23:17;24.70;73.10
28837;DHT22;50669;50.982;11.022;2022-08-03T07:25:43;24.70;72.90
28837;DHT22;50669;50.982;11.022;2022-08-03T07:28:08;24.80;72.60
28837;DHT22;50669;50.982;11.022;2022-08-03T07:30:36;24.90;72.60
28837;DHT22;50669;50.982;11.022;2022-08-03T07:33:04;25.10;72.40
28837;DHT22;50669;50.982;11.022;2022-08-03T07:35:30;25.20;71.70
28837;DHT22;50669;50.982;11.022;2022-08-03T07:37:55;25.30;71.60
28837;DHT22;50669;50.982;11.022;2022-08-03T07:40:23;25.30;71.20
28837;DHT22;50669;50.982;11.022;2022-08-03T07:42:51;25.50;71.20
28837;DHT22;50669;50.982;11.022;2022-08-03T07:45:17;25.70;70.50
28837;DHT22;50669;50.982;11.022;2022-08-03T07:47:43;25.80;70.70
28837;DHT22;50669;50.982;11.022;2022-08-03T07:50:08;25.90;70.10
28837;DHT22;50669;50.982;11.022;2022-08-03T07:52:37;26.00;70.40
28837;DHT22;50669;50.982;11.022;2022-08-03T07:55:18;26.00;69.50
28837;DHT22;50669;50.982;11.022;2022-08-03T07:57:57;26.10;69.90
28837;DHT22;50669;50.982;11.022;2022-08-03T08:00:23;26.30;69.60
28837;DHT22;50669;50.982;11.022;2022-08-03T08:02:48;26.30;68.90
28837;DHT22;50669;50.982;11.022;2022-08-03T08:05:14;26.40;68.80
28837;DHT22;50669;50.982;11.022;2022-08-03T08:07:40;26.50;68.90
28837;DHT22;50669;50.982;11.022;2022-08-03T08:10:07;26.70;68.50
28837;DHT22;50669;50.982;11.022;2022-08-03T08:12:37;26.60;68.20
28837;DHT22;50669;50.982;11.022;2022-08-03T08:15:04;26.70;68.20
28837;DHT22;50669;50.982;11.022;2022-08-03T08:17:30;26.80;68.10
28837;DHT22;50669;50.982;11.022;2022-08-03T08:19:58;26.90;67.40
28837;DHT22;50669;50.982;11.022;2022-08-03T08:22:23;26.90;66.00
28837;DHT22;50669;50.982;11.022;2022-08-03T08:24:51;27.00;65.60
28837;DHT22;50669;50.982;11.022;2022-08-03T08:27:17;27.00;64.20
28837;DHT22;50669;50.982;11.022;2022-08-03T08:29:42;27.20;64.50
28837;DHT22;50669;50.982;11.022;2022-08-03T08:32:08;27.20;63.80
28837;DHT22;50669;50.982;11.022;2022-08-03T08:34:35;27.50;63.40
28837;DHT22;50669;50.982;11.022;2022-08-03T08:37:01;27.50;62.90
28837;DHT22;50669;50.982;11.022;2022-08-03T08:39:29;27.70;62.30
28837;DHT22;50669;50.982;11.022;2022-08-03T08:41:54;27.80;62.50
28837;DHT22;50669;50.982;11.022;2022-08-03T08:44:20;27.90;62.40
28837;DHT22;50669;50.982;11.022;2022-08-03T08:46:49;27.90;61.10
28837;DHT22;50669;50.982;11.022;2022-08-03T08:49:17;28.00;61.70
28837;DHT22;50669;50.982;11.022;2022-08-03T08:51:51;28.10;61.00
28837;DHT22;50669;50.982;11.022;2022-08-03T08:54:22;28.30;60.60
28837;DHT22;50669;50.982;11.022;2022-08-03T08:56:51;28.40;59.50
28837;DHT22;50669;50.982;11.022;2022-08-03T08:59:17;28.40;59.60
28837;DHT22;50669;50.982;11.022;2022-08-03T09:01:45;28.50;59.10
28837;DHT22;50669;50.982;11.022;2022-08-03T09:04:10;28.70;58.30
28837;DHT22;50669;50.982;11.022;2022-08-03T09:06:36;28.60;57.50
28837;DHT22;50669;50.982;11.022;2022-08-03T09:09:02;28.60;56.90
28837;DHT22;50669;50.982;11.022;2022-08-03T09:11:27;28.80;57.10
28837;DHT22;50669;50.982;11.022;2022-08-03T09:13:53;28.90;56.50
28837;DHT22;50669;50.982;11.022;2022-08-03T09:16:24;28.90;56.60
28837;DHT22;50669;50.982;11.022;2022-08-03T09:18:55;28.90;55.90
28837;DHT22;50669;50.982;11.022;2022-08-03T09:21:35;28.90;55.30
28837;DHT22;50669;50.982;11.022;2022-08-03T09:24:02;29.00;55.70
28837;DHT22;50669;50.982;11.022;2022-08-03T09:26:31;29.20;56.50
28837;DHT22;50669;50.982;11.022;2022-08-03T09:29:19;29.20;56.10
28837;DHT22;50669;50.982;11.022;2022-08-03T09:31:46;29.30;55.90
28837;DHT22;50669;50.982;11.022;2022-08-03T09:34:16;29.30;55.90
28837;DHT22;50669;50.982;11.022;2022-08-03T09:36:45;29.40;52.60
28837;DHT22;50669;50.982;11.022;2022-08-03T09:39:19;29.40;52.90
28837;DHT22;50669;50.982;11.022;2022-08-03T09:42:05;29.60;52.30
28837;DHT22;50669;50.982;11.022;2022-08-03T09:44:44;29.70;51.50
28837;DHT22;50669;50.982;11.022;2022-08-03T09:47:12;29.70;52.00
28837;DHT22;50669;50.982;11.022;2022-08-03T09:49:40;29.90;51.80
28837;DHT22;50669;50.982;11.022;2022-08-03T09:52:17;30.00;51.10
28837;DHT22;50669;50.982;11.022;2022-08-03T09:54:46;30.20;51.70
28837;DHT22;50669;50.982;11.022;2022-08-03T09:57:22;30.30;50.80
28837;DHT22;50669;50.982;11.022;2022-08-03T09:59:51;30.30;50.60
28837;DHT22;50669;50.982;11.022;2022-08-03T10:02:22;30.20;50.80
28837;DHT22;50669;50.982;11.022;2022-08-03T10:04:49;30.30;51.00
28837;DHT22;50669;50.982;11.022;2022-08-03T10:07:23;30.30;51.40
28837;DHT22;50669;50.982;11.022;2022-08-03T10:10:00;30.40;51.20
28837;DHT22;50669;50.982;11.022;2022-08-03T10:12:26;30.40;50.60
28837;DHT22;50669;50.982;11.022;2022-08-03T10:14:53;30.40;51.50
28837;DHT22;50669;50.982;11.022;2022-08-03T10:17:21;30.70;51.80
28837;DHT22;50669;50.982;11.022;2022-08-03T10:19:48;30.80;50.30
28837;DHT22;50669;50.982;11.022;2022-08-03T10:22:14;30.80;49.40
28837;DHT22;50669;50.982;11.022;2022-08-03T10:24:55;30.70;50.00
28837;DHT22;50669;50.982;11.022;2022-08-03T10:27:22;30.70;49.80
28837;DHT22;50669;50.982;11.022;2022-08-03T10:29:52;30.60;49.60
28837;DHT22;50669;50.982;11.022;2022-08-03T10:34:57;30.70;50.30
28837;DHT22;50669;50.982;11.022;2022-08-03T10:37:29;30.70;49.10
28837;DHT22;50669;50.982;11.022;2022-08-03T10:39:57;30.60;49.00
28837;DHT22;50669;50.982;11.022;2022-08-03T10:42:27;30.60;49.50
28837;DHT22;50669;50.982;11.022;2022-08-03T10:45:06;30.80;49.60
28837;DHT22;50669;50.982;11.022;2022-08-03T10:47:34;31.00;49.30
28837;DHT22;50669;50.982;11.022;2022-08-03T10:50:01;31.10;49.50
28837;DHT22;50669;50.982;11.022;2022-08-03T10:52:27;31.20;49.00
28837;DHT22;50669;50.982;11.022;2022-08-03T10:54:55;31.40;49.20
28837;DHT22;50669;50.982;11.022;2022-08-03T10:57:43;31.50;48.90
28837;DHT22;50669;50.982;11.022;2022-08-03T11:00:13;31.60;47.30
28837;DHT22;50669;50.982;11.022;2022-08-03T11:03:01;31.50;47.80
28837;DHT22;50669;50.982;11.022;2022-08-03T11:05:30;31.40;47.50
28837;DHT22;50669;50.982;11.022;2022-08-03T11:10:47;31.30;47.80
28837;DHT22;50669;50.982;11.022;2022-08-03T11:13:18;31.40;48.10
28837;DHT22;50669;50.982;11.022;2022-08-03T11:15:46;31.60;47.70
28837;DHT22;50669;50.982;11.022;2022-08-03T11:18:15;31.70;47.10
28837;DHT22;50669;50.982;11.022;2022-08-03T11:20:54;31.60;47.70
28837;DHT22;50669;50.982;11.022;2022-08-03T11:23:43;31.70;47.50
28837;DHT22;50669;50.982;11.022;2022-08-03T11:26:13;31.80;46.60
28837;DHT22;50669;50.982;11.022;2022-08-03T11:28:40;31.90;47.40
28837;DHT22;50669;50.982;11.022;2022-08-03T11:34:07;32.20;47.20
28837;DHT22;50669;50.982;11.022;2022-08-03T11:39:39;32.30;47.40
28837;DHT22;50669;50.982;11.022;2022-08-03T11:44:57;32.10;47.70
28837;DHT22;50669;50.982;11.022;2022-08-03T11:47:28;32.40;47.10
28837;DHT22;50669;50.982;11.022;2022-08-03T11:49:57;32.50;46.90
28837;DHT22;50669;50.982;11.022;2022-08-03T11:52:35;32.60;47.60
28837;DHT22;50669;50.982;11.022;2022-08-03T11:55:02;33.20;46.30
28837;DHT22;50669;50.982;11.022;2022-08-03T11:57:34;34.10;45.80
28837;DHT22;50669;50.982;11.022;2022-08-03T11:59:59;35.90;44.10
28837;DHT22;50669;50.982;11.022;2022-08-03T12:02:27;37.60;42.30
28837;DHT22;50669;50.982;11.022;2022-08-03T12:04:57;38.80;41.30
28837;DHT22;50669;50.982;11.022;2022-08-03T12:07:26;40.40;40.50
28837;DHT22;50669;50.982;11.022;2022-08-03T12:10:09;41.50;37.50
28837;DHT22;50669;50.982;11.022;2022-08-03T12:12:35;42.10;37.50
28837;DHT22;50669;50.982;11.022;2022-08-03T12:15:05;43.00;36.70
28837;DHT22;50669;50.982;11.022;2022-08-03T12:17:41;44.30;36.50
28837;DHT22;50669;50.982;11.022;2022-08-03T12:20:13;45.40;34.60
28837;DHT22;50669;50.982;11.022;2022-08-03T12:22:44;46.20;34.30
28837;DHT22;50669;50.982;11.022;2022-08-03T12:25:23;45.60;32.80
28837;DHT22;50669;50.982;11.022;2022-08-03T12:27:49;45.70;32.90
28837;DHT22;50669;50.982;11.022;2022-08-03T12:30:20;44.60;33.60
28837;DHT22;50669;50.982;11.022;2022-08-03T12:32:47;45.20;32.80
28837;DHT22;50669;50.982;11.022;2022-08-03T12:35:23;44.30;33.50
28837;DHT22;50669;50.982;11.022;2022-08-03T12:37:50;44.20;34.60
28837;DHT22;50669;50.982;11.022;2022-08-03T12:40:24;45.40;34.10
28837;DHT22;50669;50.982;11.022;2022-08-03T12:42:53;46.50;33.00
28837;DHT22;50669;50.982;11.022;2022-08-03T12:45:22;47.20;32.00
28837;DHT22;50669;50.982;11.022;2022-08-03T12:48:00;46.70;32.00
28837;DHT22;50669;50.982;11.022;2022-08-03T12:50:31;46.60;31.20
28837;DHT22;50669;50.982;11.022;2022-08-03T12:52:58;44.90;32.90
28837;DHT22;50669;50.982;11.022;2022-08-03T12:55:25;44.30;33.30
28837;DHT22;50669;50.982;11.022;2022-08-03T12:57:58;43.40;34.00
28837;DHT22;50669;50.982;11.022;2022-08-03T13:00:24;42.90;34.80
28837;DHT22;50669;50.982;11.022;2022-08-03T13:03:03;42.40;34.90
28837;DHT22;50669;50.982;11.022;2022-08-03T13:05:44;41.50;36.20
28837;DHT22;50669;50.982;11.022;2022-08-03T13:08:22;40.60;36.40
28837;DHT22;50669;50.982;11.022;2022-08-03T13:10:49;39.50;36.90
28837;DHT22;50669;50.982;11.022;2022-08-03T13:13:15;39.00;38.10
28837;DHT22;50669;50.982;11.022;2022-08-03T13:15:44;38.50;37.50
28837;DHT22;50669;50.982;11.022;2022-08-03T13:18:10;38.10;38.10
28837;DHT22;50669;50.982;11.022;2022-08-03T13:20:38;37.60;38.50
28837;DHT22;50669;50.982;11.022;2022-08-03T13:23:03;37.30;39.20
28837;DHT22;50669;50.982;11.022;2022-08-03T13:25:29;37.00;39.60
28837;DHT22;50669;50.982;11.022;2022-08-03T13:27:55;36.60;39.50
28837;DHT22;50669;50.982;11.022;2022-08-03T13:30:20;36.20;40.20
28837;DHT22;50669;50.982;11.022;2022-08-03T13:32:46;36.30;40.60
28837;DHT22;50669;50.982;11.022;2022-08-03T13:35:12;36.30;40.80
28837;DHT22;50669;50.982;11.022;2022-08-03T13:37:39;36.20;40.90
28837;DHT22;50669;50.982;11.022;2022-08-03T13:40:06;36.10;41.10
28837;DHT22;50669;50.982;11.022;2022-08-03T13:42:33;35.90;41.30
28837;DHT22;50669;50.982;11.022;2022-08-03T13:45:03;35.70;41.20
28837;DHT22;50669;50.982;11.022;2022-08-03T13:47:29;35.40;41.70
28837;DHT22;50669;50.982;11.022;2022-08-03T13:49:56;35.20;42.10
28837;DHT22;50669;50.982;11.022;2022-08-03T13:52:22;35.20;42.60
28837;DHT22;50669;50.982;11.022;2022-08-03T13:54:50;35.50;42.30
28837;DHT22;50669;50.982;11.022;2022-08-03T13:57:18;35.80;41.90
28837;DHT22;50669;50.982;11.022;2022-08-03T13:59:44;36.00;42.00
28837;DHT22;50669;50.982;11.022;2022-08-03T14:02:09;35.90;41.90
28837;DHT22;50669;50.982;11.022;2022-08-03T14:04:35;35.70;42.10
28837;DHT22;50669;50.982;11.022;2022-08-03T14:07:06;35.60;42.40
28837;DHT22;50669;50.982;11.022;2022-08-03T14:09:31;35.80;41.70
28837;DHT22;50669;50.982;11.022;2022-08-03T14:11:57;36.10;41.80
28837;DHT22;50669;50.982;11.022;2022-08-03T14:14:26;36.10;41.90
28837;DHT22;50669;50.982;11.022;2022-08-03T14:16:52;36.10;42.30
28837;DHT22;50669;50.982;11.022;2022-08-03T14:19:17;36.00;42.10
28837;DHT22;50669;50.982;11.022;2022-08-03T14:21:43;36.30;41.90
28837;DHT22;50669;50.982;11.022;2022-08-03T14:24:11;37.30;40.90
28837;DHT22;50669;50.982;11.022;2022-08-03T14:26:42;38.20;39.50
28837;DHT22;50669;50.982;11.022;2022-08-03T14:29:10;39.30;38.70
28837;DHT22;50669;50.982;11.022;2022-08-03T14:31:38;40.20;37.60
28837;DHT22;50669;50.982;11.022;2022-08-03T14:34:04;39.90;37.90
28837;DHT22;50669;50.982;11.022;2022-08-03T14:36:29;39.20;38.50
28837;DHT22;50669;50.982;11.022;2022-08-03T14:38:55;40.00;38.50
28837;DHT22;50669;50.982;11.022;2022-08-03T14:41:21;41.60;37.10
28837;DHT22;50669;50.982;11.022;2022-08-03T14:43:47;42.10;35.90
28837;DHT22;50669;50.982;11.022;2022-08-03T14:46:12;41.80;36.20
28837;DHT22;50669;50.982;11.022;2022-08-03T14:48:38;40.40;37.50
28837;DHT22;50669;50.982;11.022;2022-08-03T14:51:04;39.00;38.70
28837;DHT22;50669;50.982;11.022;2022-08-03T14:53:30;37.70;39.70
28837;DHT22;50669;50.982;11.022;2022-08-03T14:55:56;36.90;41.00
28837;DHT22;50669;50.982;11.022;2022-08-03T14:58:22;36.60;41.70
28837;DHT22;50669;50.982;11.022;2022-08-03T15:00:51;36.20;41.90
28837;DHT22;50669;50.982;11.022;2022-08-03T15:03:20;35.70;42.50
28837;DHT22;50669;50.982;11.022;2022-08-03T15:05:50;35.60;42.70
28837;DHT22;50669;50.982;11.022;2022-08-03T15:08:16;35.30;42.90
28837;DHT22;50669;50.982;11.022;2022-08-03T15:10:44;35.00;43.20
28837;DHT22;50669;50.982;11.022;2022-08-03T15:13:09;34.80;43.40
28837;DHT22;50669;50.982;11.022;2022-08-03T15:15:38;34.50;43.90
28837;DHT22;50669;50.982;11.022;2022-08-03T15:18:03;34.50;44.40
28837;DHT22;50669;50.982;11.022;2022-08-03T15:20:29;34.50;44.70
28837;DHT22;50669;50.982;11.022;2022-08-03T15:22:57;34.50;44.40
28837;DHT22;50669;50.982;11.022;2022-08-03T15:25:27;34.40;44.60
28837;DHT22;50669;50.982;11.022;2022-08-03T15:27:56;34.30;44.80
28837;DHT22;50669;50.982;11.022;2022-08-03T15:30:21;34.20;45.00
28837;DHT22;50669;50.982;11.022;2022-08-03T15:32:47;34.20;45.00
28837;DHT22;50669;50.982;11.022;2022-08-03T15:35:13;34.20;45.20
28837;DHT22;50669;50.982;11.022;2022-08-03T15:37:40;34.10;45.20
28837;DHT22;50669;50.982;11.022;2022-08-03T15:40:06;33.90;45.50
28837;DHT22;50669;50.982;11.022;2022-08-03T15:42:32;33.90;45.50
28837;DHT22;50669;50.982;11.022;2022-08-03T15:45:00;33.80;45.90
28837;DHT22;50669;50.982;11.022;2022-08-03T15:47:26;33.80;45.80
28837;DHT22;50669;50.982;11.022;2022-08-03T15:49:52;33.70;46.00
28837;DHT22;50669;50.982;11.022;2022-08-03T15:52:18;33.60;45.90
28837;DHT22;50669;50.982;11.022;2022-08-03T15:54:43;33.50;45.70
28837;DHT22;50669;50.982;11.022;2022-08-03T15:57:09;33.40;46.00